createdAt,value
2024-01-07T00:00:23.130Z,98947.13
2024-01-07T00:03:10.028Z,98944.41
2024-01-07T00:05:38.788Z,98949.03
2024-01-07T00:08:06.141Z,98946.50
2024-01-07T00:10:33.225Z,98951.75
2024-01-07T00:13:00.675Z,98941.03
2024-01-07T00:15:30.547Z,98948.69
2024-01-07T00:17:57.560Z,98949.31
2024-01-07T00:20:24.944Z,98944.91
2024-01-07T00:22:51.772Z,98946.63
2024-01-07T00:25:19.661Z,98949.03
2024-01-07T00:27:46.878Z,98952.47
2024-01-07T00:30:14.279Z,98952.69
2024-01-07T00:32:41.344Z,98944.91
2024-01-07T00:35:08.764Z,98949.97
2024-01-07T00:37:36.268Z,98953.22
2024-01-07T00:40:04.112Z,98944.06
2024-01-07T00:42:31.365Z,98935.50
2024-01-07T00:44:58.482Z,98941.69
2024-01-07T00:47:25.341Z,98938.00
2024-01-07T00:49:52.498Z,98936.31
2024-01-07T00:52:19.697Z,98946.19
2024-01-07T00:54:46.835Z,98949.44
2024-01-07T00:57:13.747Z,98949.94
2024-01-07T00:59:41.100Z,98954.88
2024-01-07T01:02:08.219Z,98949.72
2024-01-07T01:04:35.459Z,98953.50
2024-01-07T01:07:02.408Z,98944.06
2024-01-07T01:09:30.712Z,98953.69
2024-01-07T01:11:57.580Z,98948.16
2024-01-07T01:14:24.690Z,98947.53
2024-01-07T01:16:51.504Z,98944.91
2024-01-07T01:19:19.514Z,98942.09
2024-01-07T01:21:46.398Z,98943.84
2024-01-07T01:24:13.919Z,98940.81
2024-01-07T01:26:40.754Z,98938.09
2024-01-07T01:29:08.018Z,98937.91
2024-01-07T01:31:34.938Z,98936.00
2024-01-07T01:34:02.333Z,98934.00
2024-01-07T01:36:29.304Z,98933.72
2024-01-07T01:38:56.475Z,98925.22
2024-01-07T01:41:23.266Z,98933.94
2024-01-07T01:43:50.461Z,98926.06
2024-01-07T01:46:17.303Z,98926.06
2024-01-07T01:48:45.166Z,98931.19
2024-01-07T01:51:12.525Z,98931.50
2024-01-07T01:53:40.136Z,98927.31
2024-01-07T01:56:08.054Z,98916.09
2024-01-07T01:58:37.757Z,98923.09
2024-01-07T02:01:07.432Z,98918.59
2024-01-07T02:03:34.636Z,98927.31
2024-01-07T02:06:01.609Z,98925.53
2024-01-07T02:08:29.036Z,98925.22
2024-01-07T02:10:55.927Z,98915.16
2024-01-07T02:13:23.005Z,98911.25
2024-01-07T02:15:49.914Z,98917.78
2024-01-07T02:18:17.211Z,98920.38
2024-01-07T02:20:44.059Z,98912.41
2024-01-07T02:23:11.135Z,98908.00
2024-01-07T02:25:38.370Z,98908.00
2024-01-07T02:28:06.602Z,98901.22
2024-01-07T02:30:33.679Z,98912.13
2024-01-07T02:33:05.082Z,98912.56
2024-01-07T02:35:32.099Z,98911.28
2024-01-07T02:37:59.257Z,98909.06
2024-01-07T02:40:26.224Z,98901.50
2024-01-07T02:42:53.550Z,98898.19
2024-01-07T02:45:20.441Z,98894.25
2024-01-07T02:47:48.071Z,98884.53
2024-01-07T02:50:15.032Z,98886.63
2024-01-07T02:52:42.107Z,98886.84
2024-01-07T02:55:09.586Z,98887.78
2024-01-07T02:57:39.337Z,98890.41
2024-01-07T03:00:07.146Z,98886.63
2024-01-07T03:02:34.622Z,98888.53
2024-01-07T03:05:01.566Z,98895.84
2024-01-07T03:07:28.731Z,98884.28
2024-01-07T03:09:55.805Z,98881.28
2024-01-07T03:12:22.916Z,98879.72
2024-01-07T03:14:49.704Z,98880.03
2024-01-07T03:17:18.450Z,98874.25
2024-01-07T03:19:45.801Z,98875.19
2024-01-07T03:22:13.030Z,98873.22
2024-01-07T03:24:39.921Z,98869.22
2024-01-07T03:27:07.012Z,98878.22
2024-01-07T03:29:34.205Z,98872.69
2024-01-07T03:32:01.332Z,98876.00
2024-01-07T03:34:28.237Z,98870.91
2024-01-07T03:36:55.316Z,98871.13
2024-01-07T03:39:22.069Z,98873.09
2024-01-07T03:41:49.126Z,98874.56
2024-01-07T03:44:15.987Z,98870.88
2024-01-07T03:46:43.105Z,98875.59
2024-01-07T03:49:10.032Z,98866.91
2024-01-07T03:51:37.142Z,98869.75
2024-01-07T03:54:04.205Z,98869.50
2024-01-07T03:56:31.034Z,98872.25
2024-01-07T03:58:58.166Z,98874.34
2024-01-07T04:01:25.016Z,98870.88
2024-01-07T04:03:52.265Z,98862.72
2024-01-07T04:06:19.188Z,98871.00
2024-01-07T04:08:46.228Z,98878.53
2024-01-07T04:11:13.018Z,98875.69
2024-01-07T04:13:40.136Z,98878.75
2024-01-07T04:16:07.084Z,98879.91
2024-01-07T04:18:35.418Z,98889.44
2024-01-07T04:21:02.292Z,98881.97
2024-01-07T04:23:29.406Z,98878.97
2024-01-07T04:25:56.243Z,98891.66
2024-01-07T04:28:23.292Z,98884.53
2024-01-07T04:30:50.212Z,98885.56
2024-01-07T04:33:18.201Z,98889.53
2024-01-07T04:35:44.967Z,98888.81
2024-01-07T04:38:12.069Z,98881.59
2024-01-07T04:40:38.943Z,98887.69
2024-01-07T04:43:06.065Z,98888.72
2024-01-07T04:45:32.901Z,98888.09
2024-01-07T04:48:00.110Z,98889.78
2024-01-07T04:50:29.560Z,98889.78
2024-01-07T04:52:56.760Z,98888.50
2024-01-07T04:55:23.607Z,98889.34
2024-01-07T04:57:50.840Z,98890.38
2024-01-07T05:00:17.956Z,98889.47
2024-01-07T05:02:45.004Z,98882.94
2024-01-07T05:05:11.804Z,98894.38
2024-01-07T05:07:39.542Z,98879.72
2024-01-07T05:10:06.969Z,98876.25
2024-01-07T05:12:34.213Z,98886.84
2024-01-07T05:15:01.004Z,98880.13
2024-01-07T05:17:27.854Z,98888.72
2024-01-07T05:19:55.014Z,98880.31
2024-01-07T05:22:22.810Z,98881.91
2024-01-07T05:24:49.938Z,98874.16
2024-01-07T05:27:16.790Z,98879.50
2024-01-07T05:29:50.710Z,98880.31
2024-01-07T05:32:17.509Z,98886.63
2024-01-07T05:34:45.888Z,98879.91
2024-01-07T05:37:12.681Z,98878.88
2024-01-07T05:39:39.884Z,98884.97
2024-01-07T05:42:06.750Z,98882.75
2024-01-07T05:44:33.853Z,98883.88
2024-01-07T05:47:00.657Z,98883.28
2024-01-07T05:49:27.796Z,98889.16
2024-01-07T05:51:55.475Z,98889.38
2024-01-07T05:54:23.688Z,98884.31
2024-01-07T05:56:50.531Z,98886.09
2024-01-07T05:59:17.609Z,98880.69
2024-01-07T06:01:44.645Z,98882.66
2024-01-07T06:04:11.899Z,98884.13
2024-01-07T06:06:38.955Z,98879.59
2024-01-07T06:09:06.076Z,98882.94
2024-01-07T06:11:32.879Z,98896.16
2024-01-07T06:13:59.978Z,98883.78
2024-01-07T06:16:26.776Z,98885.50
2024-01-07T06:18:54.021Z,98890.41
2024-01-07T06:21:20.924Z,98885.25
2024-01-07T06:23:48.003Z,98886.09
2024-01-07T06:26:19.064Z,98887.78
2024-01-07T06:28:46.112Z,98885.06
2024-01-07T06:31:12.920Z,98886.63
2024-01-07T06:33:40.133Z,98887.25
2024-01-07T06:36:07.146Z,98891.47
2024-01-07T06:38:35.040Z,98890.63
2024-01-07T06:41:05.048Z,98891.47
2024-01-07T06:43:33.295Z,98890.41
2024-01-07T06:46:00.799Z,98896.59
2024-01-07T06:48:28.120Z,98895.13
2024-01-07T06:50:55.091Z,98892.59
2024-01-07T06:53:22.348Z,98899.63
2024-01-07T06:55:49.103Z,98895.56
2024-01-07T06:58:16.386Z,98904.78
2024-01-07T07:00:44.099Z,98905.41
2024-01-07T07:03:12.586Z,98907.50
2024-01-07T07:05:39.870Z,98910.75
2024-01-07T07:08:07.273Z,98911.91
2024-01-07T07:10:34.140Z,98915.25
2024-01-07T07:13:01.478Z,98915.16
2024-01-07T07:15:29.857Z,98919.03
2024-01-07T07:17:59.502Z,98909.69
2024-01-07T07:20:26.446Z,98910.97
2024-01-07T07:22:53.526Z,98912.63
2024-01-07T07:25:20.352Z,98923.34
2024-01-07T07:27:47.523Z,98920.50
2024-01-07T07:30:14.678Z,98916.72
2024-01-07T07:32:42.939Z,98918.41
2024-01-07T07:35:09.863Z,98920.50
2024-01-07T07:37:37.317Z,98919.91
2024-01-07T07:40:04.468Z,98916.44
2024-01-07T07:42:32.015Z,98919.13
2024-01-07T07:45:03.136Z,98923.22
2024-01-07T07:47:31.017Z,98924.16
2024-01-07T07:49:58.286Z,98928.78
2024-01-07T07:52:27.048Z,98931.50
2024-01-07T07:54:54.361Z,98929.53
2024-01-07T07:57:22.540Z,98927.66
2024-01-07T07:59:50.370Z,98937.41
2024-01-07T08:02:17.727Z,98933.63
2024-01-07T08:04:45.110Z,98934.56
2024-01-07T08:07:12.275Z,98932.78
2024-01-07T08:09:39.206Z,98938.03
2024-01-07T08:12:07.436Z,98936.25
2024-01-07T08:14:34.477Z,98932.16
2024-01-07T08:17:01.561Z,98942.53
2024-01-07T08:19:28.564Z,98940.53
2024-01-07T08:21:57.674Z,98941.06
2024-01-07T08:24:24.672Z,98944.34
2024-01-07T08:26:52.911Z,98953.44
2024-01-07T08:29:19.819Z,98946.53
2024-01-07T08:31:47.406Z,98947.03
2024-01-07T08:34:16.384Z,98952.63
2024-01-07T08:36:43.709Z,98951.56
2024-01-07T08:39:12.301Z,98958.38
2024-01-07T08:41:39.505Z,98960.56
2024-01-07T08:44:06.454Z,98961.94
2024-01-07T08:46:33.518Z,98955.66
2024-01-07T08:49:00.560Z,98959.13
2024-01-07T08:51:27.988Z,98962.38
2024-01-07T08:53:55.687Z,98964.03
2024-01-07T08:56:22.793Z,98965.72
2024-01-07T08:58:49.596Z,98968.25
2024-01-07T09:01:16.747Z,98971.72
2024-01-07T09:03:43.829Z,98976.22
2024-01-07T09:06:11.137Z,98969.63
2024-01-07T09:08:38.036Z,98965.72
2024-01-07T09:11:07.204Z,98977.38
2024-01-07T09:13:33.992Z,98974.53
2024-01-07T09:16:01.157Z,98973.91
2024-01-07T09:18:28.123Z,98977.66
2024-01-07T09:20:55.266Z,98978.75
2024-01-07T09:23:22.292Z,98974.88
2024-01-07T09:25:50.346Z,98982.94
2024-01-07T09:28:17.631Z,98977.69
2024-01-07T09:30:45.003Z,98977.78
2024-01-07T09:33:11.978Z,98982.81
2024-01-07T09:35:39.112Z,98982.72
2024-01-07T09:38:05.890Z,98982.41
2024-01-07T09:40:33.222Z,98977.38
2024-01-07T09:43:00.711Z,98980.19
2024-01-07T09:45:31.125Z,98973.50
2024-01-07T09:47:58.293Z,98975.16
2024-01-07T09:50:26.148Z,98969.38
2024-01-07T09:52:59.097Z,98965.63
2024-01-07T09:55:46.095Z,98966.47
2024-01-07T09:58:13.362Z,98964.97
2024-01-07T10:00:41.262Z,98964.38
2024-01-07T10:03:08.255Z,98961.63
2024-01-07T10:05:35.450Z,98970.88
2024-01-07T10:08:03.295Z,98972.22
2024-01-07T10:10:30.553Z,98961.44
2024-01-07T10:12:58.069Z,98962.56
2024-01-07T10:15:25.330Z,98958.59
2024-01-07T10:17:56.804Z,98962.06
2024-01-07T10:20:23.871Z,98961.09
2024-01-07T10:22:53.847Z,98964.56
2024-01-07T10:25:20.984Z,98961.94
2024-01-07T10:27:47.868Z,98955.00
2024-01-07T10:30:17.394Z,98954.91
2024-01-07T10:32:44.699Z,98952.50
2024-01-07T10:35:17.599Z,98957.03
2024-01-07T10:37:46.398Z,98951.53
2024-01-07T10:40:14.053Z,98950.50
2024-01-07T10:42:44.015Z,98952.28
2024-01-07T10:45:11.923Z,98952.28
2024-01-07T10:47:42.832Z,98946.44
2024-01-07T10:50:13.348Z,98945.16
2024-01-07T10:52:42.421Z,98954.28
2024-01-07T10:55:11.403Z,98950.50
2024-01-07T10:57:46.964Z,98950.84
2024-01-07T11:00:21.550Z,98952.28
2024-01-07T11:03:13.172Z,98948.63
2024-01-07T11:05:50.205Z,98946.84
2024-01-07T11:08:25.168Z,98939.09
2024-01-07T11:11:00.733Z,98933.84
2024-01-07T11:13:39.041Z,98932.66
2024-01-07T11:16:12.873Z,98938.84
2024-01-07T11:18:52.560Z,98933.63
2024-01-07T11:21:25.880Z,98935.50
2024-01-07T11:23:54.373Z,98928.47
2024-01-07T11:26:22.051Z,98930.56
2024-01-07T11:28:52.904Z,98933.44
2024-01-07T11:31:21.652Z,98936.13
2024-01-07T11:33:52.283Z,98924.56
2024-01-07T11:36:19.875Z,98932.25
2024-01-07T11:38:53.363Z,98933.72
2024-01-07T11:41:23.044Z,98935.41
2024-01-07T11:44:05.088Z,98933.94
2024-01-07T11:46:33.949Z,98935.56
2024-01-07T11:49:04.487Z,98934.81
2024-01-07T11:51:33.654Z,98935.72
2024-01-07T11:54:02.135Z,98929.03
2024-01-07T11:56:30.116Z,98934.03
2024-01-07T11:59:00.802Z,98942.44
2024-01-07T12:01:28.431Z,98938.94
2024-01-07T12:03:55.761Z,98939.78
2024-01-07T12:06:23.089Z,98937.63
2024-01-07T12:08:50.060Z,98938.22
2024-01-07T12:11:17.832Z,98943.72
2024-01-07T12:13:45.482Z,98945.03
2024-01-07T12:16:15.589Z,98947.00
2024-01-07T12:18:43.548Z,98945.69
2024-01-07T12:21:10.899Z,98952.50
2024-01-07T12:23:41.526Z,98945.44
2024-01-07T12:26:12.102Z,98953.44
2024-01-07T12:28:39.575Z,98951.59
2024-01-07T12:31:08.314Z,98952.81
2024-01-07T12:33:35.516Z,98958.41
2024-01-07T12:36:03.066Z,98956.34
2024-01-07T12:38:30.478Z,98955.19
2024-01-07T12:40:57.858Z,98955.31
2024-01-07T12:43:24.824Z,98956.03
2024-01-07T12:45:52.250Z,98953.88
2024-01-07T12:48:19.364Z,98962.81
2024-01-07T12:50:46.578Z,98967.06
2024-01-07T12:53:13.741Z,98963.59
2024-01-07T12:55:41.307Z,98967.16
2024-01-07T12:58:08.596Z,98968.41
2024-01-07T13:00:36.689Z,98971.41
2024-01-07T13:03:08.153Z,98974.38
2024-01-07T13:05:35.595Z,98975.38
2024-01-07T13:08:02.513Z,98982.38
2024-01-07T13:10:29.730Z,98988.00
2024-01-07T13:13:04.921Z,98977.56
2024-01-07T13:15:35.578Z,98985.66
2024-01-07T13:18:02.528Z,98990.78
2024-01-07T13:20:29.712Z,98979.16
2024-01-07T13:23:01.120Z,98989.91
2024-01-07T13:25:29.402Z,98994.38
2024-01-07T13:27:56.356Z,98994.72
2024-01-07T13:30:23.521Z,98994.88
2024-01-07T13:32:50.949Z,98999.13
2024-01-07T13:35:18.544Z,98995.91
2024-01-07T13:37:45.491Z,99004.53
2024-01-07T13:40:15.534Z,98997.19
2024-01-07T13:42:42.884Z,99008.28
2024-01-07T13:45:10.140Z,99003.84
2024-01-07T13:47:37.132Z,99013.41
2024-01-07T13:50:05.084Z,99019.44
2024-01-07T13:52:32.277Z,99014.97
2024-01-07T13:54:59.562Z,99019.03
2024-01-07T13:57:26.455Z,99012.09
2024-01-07T13:59:53.566Z,99022.19
2024-01-07T14:02:20.790Z,99022.22
2024-01-07T14:04:49.412Z,99015.47
2024-01-07T14:07:16.372Z,99021.53
2024-01-07T14:09:43.700Z,99026.09
2024-01-07T14:12:10.565Z,99027.06
2024-01-07T14:14:37.706Z,99046.03
2024-01-07T14:17:04.685Z,99039.16
2024-01-07T14:19:32.145Z,99043.34
2024-01-07T14:21:59.687Z,99041.13
2024-01-07T14:24:26.855Z,99045.41
2024-01-07T14:26:54.213Z,99049.97
2024-01-07T14:29:22.541Z,99053.81
2024-01-07T14:31:49.509Z,99055.28
2024-01-07T14:34:17.179Z,99054.44
2024-01-07T14:36:44.816Z,99055.28
2024-01-07T14:39:14.680Z,99061.09
2024-01-07T14:41:41.971Z,99064.72
2024-01-07T14:44:12.392Z,99063.78
2024-01-07T14:46:40.689Z,99073.75
2024-01-07T14:49:08.859Z,99068.47
2024-01-07T14:51:35.990Z,99072.63
2024-01-07T14:54:03.994Z,99080.34
2024-01-07T14:56:30.920Z,99087.84
2024-01-07T14:58:57.966Z,99082.25
2024-01-07T15:01:25.583Z,99082.00
2024-01-07T15:03:53.050Z,99095.03
2024-01-07T15:06:20.029Z,99089.34
2024-01-07T15:08:48.713Z,99099.00
2024-01-07T15:11:16.532Z,99098.72
2024-01-07T15:13:44.892Z,99095.28
2024-01-07T15:16:12.024Z,99097.53
2024-01-07T15:18:39.374Z,99108.22
2024-01-07T15:21:06.982Z,99107.13
2024-01-07T15:23:34.149Z,99117.06
2024-01-07T15:26:00.936Z,99109.16
2024-01-07T15:28:28.151Z,99107.59
2024-01-07T15:30:55.839Z,99106.56
2024-01-07T15:33:23.258Z,99115.22
2024-01-07T15:35:50.096Z,99120.41
2024-01-07T15:38:17.194Z,99116.25
2024-01-07T15:40:44.058Z,99108.81
2024-01-07T15:43:13.773Z,99117.69
2024-01-07T15:45:41.040Z,99121.06
2024-01-07T15:48:08.448Z,99120.66
2024-01-07T15:50:35.544Z,99119.84
2024-01-07T15:53:05.918Z,99119.59
2024-01-07T15:55:36.131Z,99123.75
2024-01-07T15:58:03.800Z,99117.41
2024-01-07T16:00:30.904Z,99134.03
2024-01-07T16:02:59.524Z,99125.78
2024-01-07T16:05:29.037Z,99134.16
2024-01-07T16:07:56.336Z,99138.78
2024-01-07T16:10:23.595Z,99140.63
2024-01-07T16:12:50.912Z,99140.47
2024-01-07T16:15:17.898Z,99140.72
2024-01-07T16:17:48.090Z,99147.09
2024-01-07T16:20:15.155Z,99152.41
2024-01-07T16:22:42.306Z,99153.63
2024-01-07T16:25:09.477Z,99161.69
2024-01-07T16:27:36.864Z,99160.41
2024-01-07T16:30:05.397Z,99161.59
2024-01-07T16:32:32.719Z,99172.38
2024-01-07T16:34:59.756Z,99175.03
2024-01-07T16:37:27.064Z,99183.19
2024-01-07T16:39:53.985Z,99176.41
2024-01-07T16:42:21.170Z,99176.69
2024-01-07T16:44:48.027Z,99175.00
2024-01-07T16:47:15.598Z,99175.25
2024-01-07T16:52:12.550Z,99187.56
2024-01-07T16:54:39.638Z,99190.59
2024-01-07T16:57:06.698Z,99189.81
2024-01-07T16:59:33.779Z,99196.19
2024-01-07T17:02:01.488Z,99196.78
2024-01-07T17:04:28.498Z,99201.47
2024-01-07T17:06:55.626Z,99205.03
2024-01-07T17:09:24.821Z,99205.09
2024-01-07T17:11:52.404Z,99204.31
2024-01-07T17:14:19.285Z,99202.75
2024-01-07T17:16:47.441Z,99207.69
2024-01-07T17:19:14.656Z,99215.31
2024-01-07T17:21:42.164Z,99209.84
2024-01-07T17:24:09.628Z,99216.84
2024-01-07T17:26:36.781Z,99216.28
2024-01-07T17:29:03.842Z,99224.53
2024-01-07T17:31:30.943Z,99224.41
2024-01-07T17:33:58.893Z,99227.16
2024-01-07T17:36:26.081Z,99237.81
2024-01-07T17:38:54.039Z,99233.09
2024-01-07T17:41:21.321Z,99236.63
2024-01-07T17:43:48.487Z,99237.59
2024-01-07T17:46:16.164Z,99245.97
2024-01-07T17:48:43.043Z,99243.63
2024-01-07T17:51:10.135Z,99261.59
2024-01-07T17:53:43.025Z,99258.53
2024-01-07T17:56:19.070Z,99259.88
2024-01-07T17:58:46.295Z,99260.66
2024-01-07T18:01:13.677Z,99266.53
2024-01-07T18:03:40.614Z,99268.84
2024-01-07T18:06:07.892Z,99266.84
2024-01-07T18:08:42.442Z,99271.59
2024-01-07T18:11:15.305Z,99272.97
2024-01-07T18:13:43.046Z,99285.66
2024-01-07T18:16:13.542Z,99277.97
2024-01-07T18:18:40.840Z,99277.31
2024-01-07T18:21:07.988Z,99277.50
2024-01-07T18:23:34.852Z,99277.63
2024-01-07T18:26:02.075Z,99288.66
2024-01-07T18:28:28.883Z,99284.06
2024-01-07T18:30:56.003Z,99295.38
2024-01-07T18:33:24.664Z,99294.75
2024-01-07T18:35:51.827Z,99295.81
2024-01-07T18:38:21.562Z,99297.50
2024-01-07T18:40:48.720Z,99299.19
2024-01-07T18:43:15.528Z,99310.66
2024-01-07T18:45:42.721Z,99320.75
2024-01-07T18:48:09.658Z,99315.66
2024-01-07T18:50:36.949Z,99321.66
2024-01-07T18:53:03.985Z,99326.00
2024-01-07T18:55:32.323Z,99322.19
2024-01-07T18:57:59.645Z,99324.38
2024-01-07T19:00:26.883Z,99324.41
2024-01-07T19:02:53.803Z,99321.72
2024-01-07T19:05:21.231Z,99330.19
2024-01-07T19:07:48.219Z,99326.75
2024-01-07T19:10:15.402Z,99327.91
2024-01-07T19:12:42.265Z,99325.88
2024-01-07T19:15:12.111Z,99339.00
2024-01-07T19:17:40.589Z,99331.88
2024-01-07T19:20:08.710Z,99332.19
2024-01-07T19:22:35.905Z,99336.69
2024-01-07T19:25:03.506Z,99339.38
2024-01-07T19:27:30.301Z,99340.69
2024-01-07T19:29:57.347Z,99338.00
2024-01-07T19:32:24.247Z,99351.06
2024-01-07T19:34:53.166Z,99348.97
2024-01-07T19:37:20.684Z,99351.78
2024-01-07T19:39:47.857Z,99356.97
2024-01-07T19:42:15.464Z,99362.31
2024-01-07T19:44:43.845Z,99356.00
2024-01-07T19:47:12.395Z,99362.88
2024-01-07T19:49:39.689Z,99368.63
2024-01-07T19:52:07.540Z,99363.63
2024-01-07T19:54:34.649Z,99372.19
2024-01-07T19:57:01.716Z,99371.16
2024-01-07T19:59:28.921Z,99371.78
2024-01-07T20:01:55.926Z,99376.34
2024-01-07T20:04:25.072Z,99381.22
2024-01-07T20:06:52.016Z,99376.97
2024-01-07T20:09:20.140Z,99387.56
2024-01-07T20:11:47.972Z,99389.59
2024-01-07T20:14:15.656Z,99387.03
2024-01-07T20:16:42.568Z,99394.44
2024-01-07T20:19:10.241Z,99392.03
2024-01-07T20:21:38.656Z,99392.06
2024-01-07T20:24:06.969Z,99389.41
2024-01-07T20:26:33.831Z,99401.03
2024-01-07T20:29:03.778Z,99405.28
2024-01-07T20:31:30.647Z,99407.88
2024-01-07T20:33:58.711Z,99409.63
2024-01-07T20:36:26.726Z,99410.47
2024-01-07T20:38:53.871Z,99414.59
2024-01-07T20:41:22.387Z,99418.41
2024-01-07T20:43:50.728Z,99424.41
2024-01-07T20:46:17.623Z,99424.69
2024-01-07T20:48:44.791Z,99432.28
2024-01-07T20:51:14.240Z,99433.91
2024-01-07T20:53:43.422Z,99443.03
2024-01-07T20:56:10.646Z,99452.72
2024-01-07T20:58:37.888Z,99449.34
2024-01-07T21:01:05.030Z,99455.72
2024-01-07T21:03:32.438Z,99460.41
2024-01-07T21:06:00.299Z,99464.09
2024-01-07T21:08:29.529Z,99471.75
2024-01-07T21:10:58.658Z,99464.56
2024-01-07T21:13:26.111Z,99472.44
2024-01-07T21:15:53.002Z,99473.66
2024-01-07T21:18:23.150Z,99476.91
2024-01-07T21:20:50.799Z,99473.13
2024-01-07T21:23:19.241Z,99478.53
2024-01-07T21:25:46.620Z,99483.09
2024-01-07T21:28:14.563Z,99482.03
2024-01-07T21:30:41.847Z,99484.72
2024-01-07T21:33:09.103Z,99494.81
2024-01-07T21:35:38.925Z,99492.84
2024-01-07T21:38:06.154Z,99495.72
2024-01-07T21:40:33.228Z,99501.56
2024-01-07T21:43:00.329Z,99502.59
2024-01-07T21:45:27.128Z,99512.75
2024-01-07T21:47:54.397Z,99513.34
2024-01-07T21:50:21.421Z,99513.34
2024-01-07T21:52:58.877Z,99516.91
2024-01-07T21:55:25.759Z,99523.72
2024-01-07T21:57:52.919Z,99523.47
2024-01-07T22:00:19.905Z,99525.63
2024-01-07T22:02:48.204Z,99523.97
2024-01-07T22:05:15.845Z,99528.19
2024-01-07T22:07:43.304Z,99527.31
2024-01-07T22:10:12.885Z,99532.34
2024-01-07T22:12:39.978Z,99524.28
2024-01-07T22:15:08.214Z,99531.88
2024-01-07T22:17:36.446Z,99544.66
2024-01-07T22:20:05.684Z,99532.56
2024-01-07T22:22:33.082Z,99541.41
2024-01-07T22:25:00.221Z,99542.25
2024-01-07T22:27:27.368Z,99544.53
2024-01-07T22:29:54.197Z,99546.91
2024-01-07T22:32:21.605Z,99545.34
2024-01-07T22:34:48.513Z,99549.66
2024-01-07T22:37:15.614Z,99549.84
2024-01-07T22:39:43.265Z,99558.00
2024-01-07T22:42:10.346Z,99552.81
2024-01-07T22:44:37.191Z,99555.47
2024-01-07T22:47:04.706Z,99561.75
2024-01-07T22:49:31.615Z,99562.91
2024-01-07T22:51:59.324Z,99566.28
2024-01-07T22:54:26.280Z,99565.91
2024-01-07T22:56:53.661Z,99572.53
2024-01-07T22:59:21.150Z,99570.06
2024-01-07T23:01:49.127Z,99571.81
2024-01-07T23:04:16.037Z,99573.50
2024-01-07T23:06:43.242Z,99583.69
2024-01-07T23:09:12.125Z,99584.53
2024-01-07T23:11:39.400Z,99582.50
2024-01-07T23:14:06.682Z,99584.75
2024-01-07T23:16:36.779Z,99587.69
2024-01-07T23:19:04.489Z,99590.34
2024-01-07T23:21:31.743Z,99580.78
2024-01-07T23:23:58.595Z,99596.56
2024-01-07T23:26:26.000Z,99599.50
2024-01-07T23:28:52.990Z,99603.31
2024-01-07T23:31:20.381Z,99607.75
2024-01-07T23:33:47.546Z,99600.06
2024-01-07T23:36:16.089Z,99608.22
2024-01-07T23:38:43.254Z,99605.69
2024-01-07T23:41:10.558Z,99611.59
2024-01-07T23:43:37.413Z,99615.72
2024-01-07T23:46:06.134Z,99625.47
2024-01-07T23:48:33.129Z,99626.38
2024-01-07T23:51:00.352Z,99620.22
2024-01-07T23:53:27.210Z,99626.38
2024-01-07T23:55:54.592Z,99633.53
2024-01-07T23:58:21.768Z,99633.75
